MUCU/SCU METAR and TAF weather

Enter ICAO airport designator
Station Type Date Time Source
MUCU METAR 2020/07/11 16:51 UTC NOAA

MUCU 111651Z 19007KT 160V220 9000 FEW020TCU 31/24 Q1016


Station Type Date Time Source
MUCU Decoded METAR 2020/07/11 16:51 UTC NOAA

Santiago De Cuba, Oriente, Cuba (MUCU) 19-58N 075-51W 55M
Jul 11, 2020 - 12:51 PM EDT / 2020.07.11 1651 UTC
Wind: from the S (190 degrees) at 8 MPH (7 KT) (direction variable):0
Visibility: 5 mile(s):0
Sky conditions: mostly clear
Weather: Towering cumulus clouds observed
Temperature: 87 F (31 C)
Heat index: 95.7 F (35.4 C):1
Dew Point: 75 F (24 C)
Relative Humidity: 66%
Pressure (altimeter): 30.00 in. Hg (1016 hPa)
ob: MUCU 111651Z 19007KT 160V220 9000 FEW020TCU 31/24 Q1016
cycle: 17

Station Type Date Time Source
MUCU TAF 2020/07/11 18:03 UTC NOAA

TAF MUCU 111700Z 1118/1218 18008KT 9000 SCT020
TEMPO 1118/1124 VRB10KT 5000 TSRA SCT018CB BKN020
BECMG 1201/1203 36005KT
BECMG 1215/1217 18008KT

Example: see airport list